createdAt,value
2023-01-15T00:00:06.348Z,9.90
2023-01-15T00:02:34.772Z,9.80
2023-01-15T00:05:04.116Z,9.80
2023-01-15T00:07:32.888Z,9.90
2023-01-15T00:10:00.803Z,9.90
2023-01-15T00:12:28.682Z,9.90
2023-01-15T00:14:58.086Z,10.00
2023-01-15T00:17:26.673Z,10.00
2023-01-15T00:19:54.618Z,10.00
2023-01-15T00:22:23.790Z,10.10
2023-01-15T00:25:09.379Z,10.10
2023-01-15T00:27:40.436Z,10.10
2023-01-15T00:30:13.074Z,10.10
2023-01-15T00:32:41.806Z,10.00
2023-01-15T00:35:14.518Z,10.10
2023-01-15T00:37:44.740Z,10.10
2023-01-15T00:40:18.384Z,10.10
2023-01-15T00:42:54.021Z,10.20
2023-01-15T00:45:22.485Z,10.10
2023-01-15T00:47:53.767Z,10.20
2023-01-15T00:50:22.355Z,10.20
2023-01-15T00:52:51.559Z,10.10
2023-01-15T00:55:21.377Z,10.20
2023-01-15T00:57:49.257Z,10.20
2023-01-15T01:00:18.530Z,10.20
2023-01-15T01:02:47.412Z,10.10
2023-01-15T01:05:15.687Z,10.10
2023-01-15T01:07:43.628Z,10.10
2023-01-15T01:10:13.786Z,10.10
2023-01-15T01:12:41.720Z,10.00
2023-01-15T01:15:10.946Z,10.00
2023-01-15T01:17:40.456Z,10.00
2023-01-15T01:20:11.056Z,10.10
2023-01-15T01:22:38.927Z,10.10
2023-01-15T01:25:08.519Z,10.10
2023-01-15T01:27:38.962Z,10.10
2023-01-15T01:30:12.252Z,10.10
2023-01-15T01:32:44.698Z,10.00
2023-01-15T01:35:13.069Z,10.10
2023-01-15T01:37:40.931Z,10.00
2023-01-15T01:40:10.763Z,10.10
2023-01-15T01:42:39.963Z,10.10
2023-01-15T01:45:24.957Z,10.10
2023-01-15T01:47:55.920Z,10.10
2023-01-15T01:50:24.580Z,10.00
2023-01-15T01:53:04.604Z,10.10
2023-01-15T01:55:36.790Z,10.10
2023-01-15T01:58:12.834Z,10.10
2023-01-15T02:00:47.918Z,10.10
2023-01-15T02:03:22.712Z,10.10
2023-01-15T02:05:56.520Z,10.10
2023-01-15T02:08:25.174Z,10.00
2023-01-15T02:10:57.506Z,10.00
2023-01-15T02:13:39.091Z,10.00
2023-01-15T02:16:17.711Z,9.90
2023-01-15T02:18:54.829Z,9.80
2023-01-15T02:21:35.626Z,9.80
2023-01-15T02:24:11.957Z,9.70
2023-01-15T02:27:12.806Z,9.70
2023-01-15T02:29:52.966Z,9.70
2023-01-15T02:32:35.015Z,9.60
2023-01-15T02:35:12.077Z,8.50
2023-01-15T02:37:48.058Z,9.60
2023-01-15T02:40:20.813Z,9.60
2023-01-15T02:42:51.718Z,9.60
2023-01-15T02:45:27.378Z,9.50
2023-01-15T02:48:06.859Z,9.40
2023-01-15T02:50:41.815Z,9.30
2023-01-15T02:53:15.663Z,9.00
2023-01-15T02:55:49.657Z,8.70
2023-01-15T02:58:29.859Z,8.30
2023-01-15T03:01:05.932Z,7.90
2023-01-15T03:03:45.630Z,7.70
2023-01-15T03:06:20.217Z,7.60
2023-01-15T03:08:50.585Z,7.50
2023-01-15T03:11:20.993Z,7.50
2023-01-15T03:14:10.342Z,7.40
2023-01-15T03:16:46.587Z,7.90
2023-01-15T03:19:26.750Z,7.30
2023-01-15T03:22:05.792Z,7.20
2023-01-15T03:24:40.938Z,7.10
2023-01-15T03:27:10.619Z,7.00
2023-01-15T03:29:46.886Z,6.90
2023-01-15T03:32:17.417Z,6.90
2023-01-15T03:34:53.267Z,6.80
2023-01-15T03:37:25.402Z,6.70
2023-01-15T03:39:57.103Z,6.70
2023-01-15T03:42:43.310Z,6.60
2023-01-15T03:45:23.204Z,6.50
2023-01-15T03:48:02.825Z,6.50
2023-01-15T03:50:42.924Z,6.40
2023-01-15T03:53:19.661Z,6.30
2023-01-15T03:56:02.933Z,6.30
2023-01-15T03:58:45.448Z,6.20
2023-01-15T04:01:29.073Z,6.20
2023-01-15T04:03:59.869Z,6.20
2023-01-15T04:06:35.177Z,6.10
2023-01-15T04:09:09.281Z,6.10
2023-01-15T04:11:37.964Z,6.00
2023-01-15T04:14:08.248Z,6.00
2023-01-15T04:16:44.382Z,6.00
2023-01-15T04:19:13.753Z,5.90
2023-01-15T04:21:52.020Z,5.90
2023-01-15T04:24:19.923Z,5.90
2023-01-15T04:26:47.845Z,5.90
2023-01-15T04:29:15.798Z,5.90
2023-01-15T04:31:44.989Z,5.90
2023-01-15T04:34:12.899Z,5.90
2023-01-15T04:36:40.783Z,5.90
2023-01-15T04:39:08.640Z,5.90
2023-01-15T04:41:54.145Z,5.90
2023-01-15T04:44:22.397Z,5.90
2023-01-15T04:46:51.576Z,5.90
2023-01-15T04:49:19.496Z,5.90
2023-01-15T04:51:47.871Z,6.00
2023-01-15T04:54:17.783Z,5.90
2023-01-15T04:56:50.284Z,5.90
2023-01-15T04:59:22.725Z,6.00
2023-01-15T05:02:03.145Z,6.00
2023-01-15T05:04:33.736Z,6.00
2023-01-15T05:07:03.031Z,5.90
2023-01-15T05:09:31.413Z,5.90
2023-01-15T05:11:59.276Z,5.90
2023-01-15T05:14:27.397Z,5.90
2023-01-15T05:16:56.940Z,5.90
2023-01-15T05:19:24.816Z,5.90
2023-01-15T05:21:53.850Z,5.80
2023-01-15T05:24:21.773Z,5.80
2023-01-15T05:26:49.645Z,5.90
2023-01-15T05:29:17.600Z,5.90
2023-01-15T05:31:45.924Z,5.80
2023-01-15T05:34:15.251Z,5.80
2023-01-15T05:36:43.286Z,5.90
2023-01-15T05:39:11.270Z,5.80
2023-01-15T05:41:52.707Z,5.80
2023-01-15T05:44:24.331Z,5.80
2023-01-15T05:46:55.478Z,5.70
2023-01-15T05:49:28.194Z,5.70
2023-01-15T05:51:56.926Z,5.70
2023-01-15T05:54:28.444Z,5.70
2023-01-15T05:56:57.238Z,5.80
2023-01-15T05:59:28.093Z,5.80
2023-01-15T06:01:57.302Z,5.80
2023-01-15T06:04:27.378Z,5.80
2023-01-15T06:06:57.565Z,5.80
2023-01-15T06:09:27.955Z,5.80
2023-01-15T06:11:56.285Z,5.70
2023-01-15T06:14:24.504Z,5.70
2023-01-15T06:16:52.864Z,5.90
2023-01-15T06:19:21.022Z,5.60
2023-01-15T06:21:50.659Z,5.60
2023-01-15T06:24:20.026Z,5.70
2023-01-15T06:26:48.028Z,5.70
2023-01-15T06:29:18.691Z,5.70
2023-01-15T06:31:47.376Z,5.60
2023-01-15T06:34:15.333Z,5.70
2023-01-15T06:36:43.536Z,5.60
2023-01-15T06:39:16.322Z,5.60
2023-01-15T06:42:01.698Z,5.70
2023-01-15T06:44:52.563Z,5.60
2023-01-15T06:47:23.077Z,5.60
2023-01-15T06:49:55.311Z,5.50
2023-01-15T06:52:24.119Z,5.50
2023-01-15T06:54:53.443Z,5.40
2023-01-15T06:57:22.267Z,5.40
2023-01-15T06:59:51.843Z,5.40
2023-01-15T07:02:21.450Z,5.40
2023-01-15T07:04:49.893Z,5.40
2023-01-15T07:07:20.122Z,5.40
2023-01-15T07:09:48.051Z,5.30
2023-01-15T07:12:18.168Z,5.30
2023-01-15T07:14:46.148Z,5.30
2023-01-15T07:17:15.153Z,5.30
2023-01-15T07:19:44.565Z,5.40
2023-01-15T07:22:12.776Z,5.40
2023-01-15T07:24:40.648Z,5.30
2023-01-15T07:27:08.576Z,5.30
2023-01-15T07:29:38.120Z,5.30
2023-01-15T07:32:07.176Z,5.30
2023-01-15T07:34:35.184Z,5.30
2023-01-15T07:37:03.163Z,5.30
2023-01-15T07:39:31.638Z,5.30
2023-01-15T07:42:16.946Z,5.30
2023-01-15T07:45:05.162Z,5.30
2023-01-15T07:47:51.262Z,5.30
2023-01-15T07:50:22.281Z,5.30
2023-01-15T07:52:52.905Z,5.30
2023-01-15T07:55:21.767Z,5.30
2023-01-15T07:57:49.790Z,5.40
2023-01-15T08:00:23.647Z,5.40
2023-01-15T08:02:51.601Z,5.40
2023-01-15T08:05:20.596Z,5.40
2023-01-15T08:07:49.869Z,5.40
2023-01-15T08:10:19.555Z,5.40
2023-01-15T08:13:08.308Z,5.50
2023-01-15T08:15:43.958Z,5.50
2023-01-15T08:18:12.490Z,5.60
2023-01-15T08:20:40.386Z,5.60
2023-01-15T08:23:09.376Z,5.60
2023-01-15T08:25:37.330Z,5.70
2023-01-15T08:28:06.055Z,5.80
2023-01-15T08:30:33.932Z,5.90
2023-01-15T08:33:03.578Z,5.90
2023-01-15T08:35:31.932Z,6.00
2023-01-15T08:37:59.917Z,6.00
2023-01-15T08:40:28.198Z,6.10
2023-01-15T08:42:56.685Z,6.20
2023-01-15T08:45:25.263Z,6.30
2023-01-15T08:47:56.962Z,6.30
2023-01-15T08:50:26.169Z,6.30
2023-01-15T08:52:54.360Z,6.40
2023-01-15T08:55:22.267Z,6.50
2023-01-15T08:57:50.236Z,6.60
2023-01-15T09:00:19.486Z,6.70
2023-01-15T09:02:50.033Z,6.70
2023-01-15T09:05:18.852Z,6.70
2023-01-15T09:07:48.765Z,6.70
2023-01-15T09:10:18.808Z,6.70
2023-01-15T09:12:46.757Z,6.70
2023-01-15T09:15:15.133Z,6.70
2023-01-15T09:17:43.373Z,6.70
2023-01-15T09:20:14.631Z,6.60
2023-01-15T09:22:43.210Z,6.60
2023-01-15T09:25:12.615Z,6.60
2023-01-15T09:27:40.792Z,6.50
2023-01-15T09:30:15.288Z,6.50
2023-01-15T09:32:43.513Z,6.50
2023-01-15T09:35:11.824Z,6.50
2023-01-15T09:37:40.313Z,6.40
2023-01-15T09:40:30.578Z,6.40
2023-01-15T09:43:07.120Z,6.50
2023-01-15T09:45:46.420Z,6.50
2023-01-15T09:48:34.243Z,6.50
2023-01-15T09:51:17.897Z,6.50
2023-01-15T09:54:08.159Z,6.50
2023-01-15T09:56:39.423Z,6.40
2023-01-15T09:59:22.538Z,6.40
2023-01-15T10:01:52.408Z,6.40
2023-01-15T10:04:38.114Z,6.50
2023-01-15T10:07:18.300Z,5.00
2023-01-15T10:09:59.450Z,6.50
2023-01-15T10:12:40.007Z,6.50
2023-01-15T10:15:23.354Z,6.60
2023-01-15T10:17:55.020Z,6.60
2023-01-15T10:20:49.638Z,6.60
2023-01-15T10:23:35.713Z,6.50
2023-01-15T10:26:16.667Z,6.50
2023-01-15T10:29:01.087Z,6.50
2023-01-15T10:31:50.516Z,6.50
2023-01-15T10:35:13.525Z,6.50
2023-01-15T10:37:48.035Z,6.60
2023-01-15T10:40:35.654Z,6.60
2023-01-15T10:43:16.243Z,7.30
2023-01-15T10:45:51.239Z,6.50
2023-01-15T10:48:30.831Z,6.50
2023-01-15T10:51:03.739Z,6.60
2023-01-15T10:53:43.114Z,6.60
2023-01-15T10:56:22.071Z,6.60
2023-01-15T10:58:58.210Z,6.70
2023-01-15T11:01:29.776Z,6.60
2023-01-15T11:03:57.758Z,6.60
2023-01-15T11:06:26.081Z,6.60
2023-01-15T11:09:12.667Z,6.60
2023-01-15T11:12:04.405Z,6.60
2023-01-15T11:14:55.597Z,6.70
2023-01-15T11:17:47.212Z,6.70
2023-01-15T11:20:27.872Z,6.80
2023-01-15T11:22:57.368Z,6.80
2023-01-15T11:25:33.779Z,6.90
2023-01-15T11:28:06.121Z,6.90
2023-01-15T11:30:37.456Z,6.90
2023-01-15T11:33:23.062Z,6.90
2023-01-15T11:35:52.883Z,7.00
2023-01-15T11:38:23.088Z,7.00
2023-01-15T11:40:56.721Z,7.00
2023-01-15T11:43:45.298Z,7.00
2023-01-15T11:46:47.251Z,6.90
2023-01-15T11:49:38.565Z,6.90
2023-01-15T11:52:10.811Z,6.90
2023-01-15T11:54:44.355Z,6.90
2023-01-15T11:57:13.136Z,6.90
2023-01-15T11:59:41.363Z,7.00
2023-01-15T12:02:27.169Z,7.00
2023-01-15T12:05:02.134Z,7.00
2023-01-15T12:07:30.969Z,7.00
2023-01-15T12:10:17.261Z,7.00
2023-01-15T12:13:07.272Z,7.00
2023-01-15T12:15:46.365Z,7.00
2023-01-15T12:18:51.800Z,6.90
2023-01-15T12:21:54.228Z,6.90
2023-01-15T12:24:58.986Z,6.80
2023-01-15T12:27:53.361Z,6.70
2023-01-15T12:30:39.337Z,6.70
2023-01-15T12:33:33.471Z,6.60
2023-01-15T12:36:09.728Z,6.50
2023-01-15T12:38:50.959Z,6.50
2023-01-15T12:41:48.890Z,6.50
2023-01-15T12:44:40.481Z,6.50
2023-01-15T12:47:17.170Z,6.40
2023-01-15T12:49:52.580Z,6.40
2023-01-15T12:52:27.941Z,6.30
2023-01-15T12:55:10.465Z,6.30
2023-01-15T12:57:44.952Z,6.20
2023-01-15T13:00:20.565Z,6.20
2023-01-15T13:03:08.229Z,6.20
2023-01-15T13:05:47.592Z,6.20
2023-01-15T13:08:25.013Z,6.20
2023-01-15T13:10:54.482Z,6.10
2023-01-15T13:13:25.930Z,6.10
2023-01-15T13:16:15.517Z,6.10
2023-01-15T13:19:03.066Z,6.10
2023-01-15T13:21:35.048Z,6.10
2023-01-15T13:24:32.567Z,6.00
2023-01-15T13:27:34.044Z,6.00
2023-01-15T13:30:21.993Z,6.00
2023-01-15T13:32:54.822Z,5.90
2023-01-15T13:35:33.011Z,6.00
2023-01-15T13:38:08.363Z,6.00
2023-01-15T13:40:44.006Z,5.90
2023-01-15T13:43:31.054Z,5.90
2023-01-15T13:46:00.201Z,5.90
2023-01-15T13:48:35.639Z,5.90
2023-01-15T13:51:08.382Z,5.90
2023-01-15T13:53:45.927Z,5.90
2023-01-15T13:56:25.980Z,5.90
2023-01-15T13:58:57.541Z,5.90
2023-01-15T14:01:34.728Z,5.90
2023-01-15T14:04:08.718Z,5.90
2023-01-15T14:06:41.258Z,5.90
2023-01-15T14:09:14.134Z,5.90
2023-01-15T14:12:05.917Z,5.90
2023-01-15T14:15:28.439Z,5.80
2023-01-15T14:18:56.942Z,5.80
2023-01-15T14:21:40.635Z,5.80
2023-01-15T14:24:52.330Z,5.90
2023-01-15T14:27:49.620Z,5.90
2023-01-15T14:31:02.291Z,5.90
2023-01-15T14:33:48.370Z,5.90
2023-01-15T14:36:21.831Z,5.90
2023-01-15T14:38:55.672Z,5.90
2023-01-15T14:41:29.389Z,5.90
2023-01-15T14:43:59.866Z,5.90
2023-01-15T14:46:34.312Z,5.90
2023-01-15T14:49:03.163Z,5.80
2023-01-15T14:51:37.283Z,5.50
2023-01-15T14:54:11.775Z,5.80
2023-01-15T14:56:55.782Z,5.80
2023-01-15T14:59:34.155Z,5.80
2023-01-15T15:02:16.157Z,5.80
2023-01-15T15:04:51.258Z,5.80
2023-01-15T15:07:24.425Z,5.80
2023-01-15T15:09:59.899Z,5.80
2023-01-15T15:12:39.500Z,5.80
2023-01-15T15:15:17.857Z,5.90
2023-01-15T15:18:02.679Z,5.80
2023-01-15T15:20:51.711Z,5.90
2023-01-15T15:23:27.373Z,5.80
2023-01-15T15:26:01.476Z,5.80
2023-01-15T15:28:30.203Z,5.80
2023-01-15T15:31:01.550Z,5.80
2023-01-15T15:33:40.098Z,5.80
2023-01-15T15:36:10.171Z,5.80
2023-01-15T15:38:41.722Z,5.80
2023-01-15T15:41:14.673Z,5.80
2023-01-15T15:44:10.477Z,5.70
2023-01-15T15:46:56.180Z,5.70
2023-01-15T15:49:25.534Z,5.70
2023-01-15T15:51:55.703Z,5.70
2023-01-15T15:54:26.694Z,5.70
2023-01-15T15:57:01.184Z,5.70
2023-01-15T15:59:33.548Z,5.70
2023-01-15T16:02:16.949Z,5.80
2023-01-15T16:04:52.255Z,5.80
2023-01-15T16:07:26.789Z,5.90
2023-01-15T16:10:02.213Z,6.00
2023-01-15T16:12:34.194Z,6.00
2023-01-15T16:15:03.803Z,6.00
2023-01-15T16:17:33.147Z,6.10
2023-01-15T16:20:03.258Z,6.20
2023-01-15T16:22:31.238Z,6.20
2023-01-15T16:25:00.443Z,6.20
2023-01-15T16:27:35.704Z,6.30
2023-01-15T16:30:04.930Z,6.30
2023-01-15T16:32:36.913Z,6.30
2023-01-15T16:35:17.027Z,6.30
2023-01-15T16:37:50.310Z,6.40
2023-01-15T16:40:28.639Z,6.40
2023-01-15T16:43:12.411Z,6.40
2023-01-15T16:46:01.089Z,6.40
2023-01-15T16:48:34.066Z,6.30
2023-01-15T16:51:31.080Z,6.10
2023-01-15T16:54:01.898Z,6.10
2023-01-15T16:56:54.067Z,6.10
2023-01-15T16:59:57.665Z,6.10
2023-01-15T17:02:29.915Z,6.00
2023-01-15T17:05:01.093Z,6.00
2023-01-15T17:07:38.577Z,6.80
2023-01-15T17:10:21.561Z,5.90
2023-01-15T17:12:50.487Z,5.80
2023-01-15T17:15:42.175Z,5.90
2023-01-15T17:18:28.974Z,5.90
2023-01-15T17:20:57.719Z,6.00
2023-01-15T17:23:35.018Z,6.00
2023-01-15T17:26:05.212Z,5.90
2023-01-15T17:28:33.224Z,5.90
2023-01-15T17:31:04.148Z,5.80
2023-01-15T17:33:32.659Z,5.80
2023-01-15T17:36:01.495Z,5.80
2023-01-15T17:38:30.771Z,5.80
2023-01-15T17:41:03.533Z,5.80
2023-01-15T17:43:31.521Z,5.80
2023-01-15T17:46:00.978Z,5.80
2023-01-15T17:48:28.936Z,5.80
2023-01-15T17:50:56.963Z,5.80
2023-01-15T17:53:24.982Z,5.80
2023-01-15T17:56:11.926Z,5.80
2023-01-15T17:58:57.564Z,5.80
2023-01-15T18:01:48.741Z,5.80
2023-01-15T18:04:41.884Z,5.50
2023-01-15T18:07:10.883Z,5.80
2023-01-15T18:09:40.023Z,5.80
2023-01-15T18:12:09.410Z,5.80
2023-01-15T18:14:37.490Z,5.80
2023-01-15T18:17:05.578Z,5.80
2023-01-15T18:19:33.509Z,5.80
2023-01-15T18:22:01.702Z,5.80
2023-01-15T18:24:29.580Z,5.80
2023-01-15T18:26:57.442Z,5.80
2023-01-15T18:29:26.877Z,5.80
2023-01-15T18:31:54.771Z,5.80
2023-01-15T18:34:22.662Z,5.80
2023-01-15T18:36:50.528Z,5.80
2023-01-15T18:39:18.547Z,5.80
2023-01-15T18:42:03.689Z,5.80
2023-01-15T18:44:50.558Z,5.80
2023-01-15T18:47:18.588Z,5.80
2023-01-15T18:49:48.064Z,5.80
2023-01-15T18:52:35.060Z,5.80
2023-01-15T18:55:03.650Z,4.40
2023-01-15T18:57:34.222Z,5.80
2023-01-15T19:00:03.606Z,5.70
2023-01-15T19:02:36.307Z,5.70
2023-01-15T19:05:11.933Z,5.70
2023-01-15T19:07:39.986Z,5.70
2023-01-15T19:10:09.530Z,5.70
2023-01-15T19:12:38.178Z,5.70
2023-01-15T19:15:27.032Z,5.70
2023-01-15T19:18:12.575Z,5.70
2023-01-15T19:20:40.947Z,5.70
2023-01-15T19:23:09.429Z,5.70
2023-01-15T19:25:41.142Z,5.80
2023-01-15T19:28:11.969Z,5.80
2023-01-15T19:30:41.248Z,5.70
2023-01-15T19:33:11.194Z,5.70
2023-01-15T19:35:40.399Z,5.70
2023-01-15T19:38:10.476Z,5.60
2023-01-15T19:40:41.973Z,5.70
2023-01-15T19:43:28.825Z,5.70
2023-01-15T19:46:16.124Z,5.70
2023-01-15T19:49:01.918Z,5.70
2023-01-15T19:52:00.798Z,4.80
2023-01-15T19:54:42.731Z,5.60
2023-01-15T19:57:10.595Z,5.60
2023-01-15T19:59:38.849Z,5.60
2023-01-15T20:02:08.080Z,5.60
2023-01-15T20:04:36.435Z,5.60
2023-01-15T20:07:04.328Z,5.50
2023-01-15T20:09:32.249Z,5.60
2023-01-15T20:12:17.489Z,5.60
2023-01-15T20:14:47.315Z,5.60
2023-01-15T20:17:16.658Z,5.60
2023-01-15T20:19:44.871Z,5.60
2023-01-15T20:22:12.786Z,5.60
2023-01-15T20:24:43.784Z,5.60
2023-01-15T20:27:12.840Z,5.60
2023-01-15T20:29:41.273Z,5.60
2023-01-15T20:32:09.990Z,5.60
2023-01-15T20:34:40.068Z,5.60
2023-01-15T20:37:08.698Z,5.70
2023-01-15T20:39:36.879Z,5.60
2023-01-15T20:42:22.495Z,5.60
2023-01-15T20:44:56.464Z,5.60
2023-01-15T20:47:44.795Z,5.60
2023-01-15T20:50:17.706Z,5.60
2023-01-15T20:52:47.957Z,5.60
2023-01-15T20:55:17.385Z,5.60
2023-01-15T20:57:48.186Z,5.60
2023-01-15T21:00:20.410Z,5.60
2023-01-15T21:02:49.397Z,5.60
2023-01-15T21:05:20.402Z,5.60
2023-01-15T21:07:48.650Z,5.60
2023-01-15T21:10:16.899Z,5.50
2023-01-15T21:12:45.481Z,5.50
2023-01-15T21:15:13.774Z,5.60
2023-01-15T21:17:42.001Z,5.60
2023-01-15T21:20:13.496Z,5.60
2023-01-15T21:22:44.205Z,5.60
2023-01-15T21:25:13.187Z,5.50
2023-01-15T21:27:41.091Z,5.50
2023-01-15T21:30:11.091Z,5.50
2023-01-15T21:32:38.997Z,5.50
2023-01-15T21:35:08.202Z,5.40
2023-01-15T21:37:36.079Z,5.40
2023-01-15T21:40:06.679Z,5.40
2023-01-15T21:42:52.266Z,5.40
2023-01-15T21:45:20.623Z,5.40
2023-01-15T21:47:48.842Z,5.40
2023-01-15T21:50:17.950Z,5.40
2023-01-15T21:52:45.845Z,5.40
2023-01-15T21:55:15.649Z,5.30
2023-01-15T21:57:43.569Z,5.40
2023-01-15T22:00:13.256Z,5.40
2023-01-15T22:02:41.151Z,5.30
2023-01-15T22:05:09.852Z,5.30
2023-01-15T22:07:37.811Z,5.30
2023-01-15T22:10:07.068Z,5.20
2023-01-15T22:12:41.896Z,5.20
2023-01-15T22:15:11.420Z,5.20
2023-01-15T22:17:39.494Z,5.20
2023-01-15T22:20:09.390Z,5.10
2023-01-15T22:22:39.279Z,5.10
2023-01-15T22:25:11.499Z,5.10
2023-01-15T22:27:41.856Z,5.10
2023-01-15T22:30:12.725Z,5.10
2023-01-15T22:32:41.008Z,5.10
2023-01-15T22:35:10.410Z,5.00
2023-01-15T22:37:38.271Z,5.10
2023-01-15T22:40:08.214Z,5.00
2023-01-15T22:42:36.061Z,5.00
2023-01-15T22:45:06.619Z,5.10
2023-01-15T22:47:34.491Z,5.10
2023-01-15T22:50:02.364Z,5.10
2023-01-15T22:52:30.383Z,5.10
2023-01-15T22:54:58.260Z,5.00
2023-01-15T22:57:26.123Z,5.00
2023-01-15T22:59:54.146Z,5.00
2023-01-15T23:02:43.326Z,5.00
2023-01-15T23:05:12.785Z,5.00
2023-01-15T23:07:41.555Z,5.00
2023-01-15T23:10:14.032Z,5.00
2023-01-15T23:12:43.691Z,5.00
2023-01-15T23:15:15.931Z,5.00
2023-01-15T23:17:45.664Z,5.00
2023-01-15T23:20:14.978Z,5.00
2023-01-15T23:22:43.000Z,5.00
2023-01-15T23:25:11.018Z,5.00
2023-01-15T23:27:39.148Z,5.00
2023-01-15T23:30:08.778Z,4.90
2023-01-15T23:32:39.467Z,4.90
2023-01-15T23:35:10.325Z,4.90
2023-01-15T23:37:38.256Z,4.90
2023-01-15T23:40:08.186Z,4.90
2023-01-15T23:42:53.740Z,4.90
2023-01-15T23:45:39.319Z,4.90
2023-01-15T23:48:07.485Z,4.90
2023-01-15T23:50:36.723Z,4.80
2023-01-15T23:53:05.495Z,4.80
2023-01-15T23:55:33.582Z,4.70
2023-01-15T23:58:01.489Z,4.70
